createdAt,value
2022-09-28T00:00:01.678Z,74.00
2022-09-28T00:00:33.436Z,72.60
2022-09-28T00:01:17.724Z,73.20
2022-09-28T00:01:49.871Z,72.60
2022-09-28T00:02:21.950Z,73.30
2022-09-28T00:02:57.650Z,73.30
2022-09-28T00:03:29.601Z,73.40
2022-09-28T00:04:02.687Z,72.70
2022-09-28T00:04:34.630Z,73.30
2022-09-28T00:05:06.894Z,72.70
2022-09-28T00:05:38.864Z,73.30
2022-09-28T00:06:14.552Z,73.90
2022-09-28T00:06:47.348Z,72.80
2022-09-28T00:07:19.260Z,73.30
2022-09-28T00:07:51.086Z,72.80
2022-09-28T00:08:22.933Z,73.30
2022-09-28T00:08:55.002Z,72.80
2022-09-28T00:09:27.329Z,72.70
2022-09-28T00:10:00.026Z,74.10
2022-09-28T00:10:32.129Z,72.70
2022-09-28T00:11:06.668Z,73.30
2022-09-28T00:11:38.523Z,73.20
2022-09-28T00:12:10.924Z,72.70
2022-09-28T00:12:42.921Z,73.30
2022-09-28T00:13:15.094Z,72.70
2022-09-28T00:13:51.804Z,73.30
2022-09-28T00:14:24.510Z,73.20
2022-09-28T00:14:56.546Z,72.60
2022-09-28T00:15:28.554Z,72.70
2022-09-28T00:16:08.020Z,73.30
2022-09-28T00:16:43.564Z,73.10
2022-09-28T00:17:17.196Z,73.20
2022-09-28T00:17:49.077Z,74.00
2022-09-28T00:18:21.050Z,73.30
2022-09-28T00:18:53.877Z,72.80
2022-09-28T00:19:25.782Z,73.60
2022-09-28T00:19:58.087Z,73.20
2022-09-28T00:20:30.073Z,73.30
2022-09-28T00:21:08.730Z,73.80
2022-09-28T00:21:42.007Z,72.80
2022-09-28T00:22:13.876Z,73.30
2022-09-28T00:22:45.948Z,73.40
2022-09-28T00:23:17.810Z,72.80
2022-09-28T00:24:14.775Z,73.30
2022-09-28T00:24:47.517Z,73.10
2022-09-28T00:25:21.948Z,73.30
2022-09-28T00:25:53.860Z,73.30
2022-09-28T00:26:30.318Z,71.30
2022-09-28T00:27:02.864Z,73.90
2022-09-28T00:27:35.796Z,72.80
2022-09-28T00:28:08.033Z,73.40
2022-09-28T00:29:33.824Z,72.80
2022-09-28T00:30:07.201Z,73.40
2022-09-28T00:30:39.138Z,73.10
2022-09-28T00:31:11.066Z,72.80
2022-09-28T00:31:43.363Z,74.00
2022-09-28T00:32:16.755Z,73.40
2022-09-28T00:32:48.807Z,72.90
2022-09-28T00:33:20.743Z,72.90
2022-09-28T00:33:55.242Z,73.50
2022-09-28T00:34:28.017Z,72.80
2022-09-28T00:34:59.927Z,72.80
2022-09-28T00:35:31.786Z,72.90
2022-09-28T00:36:05.461Z,73.40
2022-09-28T00:36:37.559Z,72.90
2022-09-28T00:37:10.564Z,73.50
2022-09-28T00:37:42.580Z,72.80
2022-09-28T00:38:16.664Z,72.90
2022-09-28T00:38:48.624Z,73.00
2022-09-28T00:39:20.611Z,70.40
2022-09-28T00:39:53.172Z,72.90
2022-09-28T00:40:25.206Z,73.50
2022-09-28T00:40:57.479Z,73.90
2022-09-28T00:41:29.787Z,72.80
2022-09-28T00:42:03.138Z,73.40
2022-09-28T00:42:35.505Z,72.90
2022-09-28T00:43:21.167Z,72.80
2022-09-28T00:43:56.673Z,72.90
2022-09-28T00:44:46.483Z,73.50
2022-09-28T00:45:18.520Z,73.30
2022-09-28T00:45:57.992Z,72.80
2022-09-28T00:46:35.736Z,73.40
2022-09-28T00:47:13.951Z,73.40
2022-09-28T00:47:51.890Z,73.40
2022-09-28T00:48:28.269Z,74.20
2022-09-28T00:49:11.198Z,73.00
2022-09-28T00:49:48.931Z,73.30
2022-09-28T00:50:20.911Z,73.40
2022-09-28T00:50:53.470Z,71.40
2022-09-28T00:51:27.248Z,73.80
2022-09-28T00:52:00.576Z,73.40
2022-09-28T00:52:41.525Z,73.00
2022-09-28T00:53:20.417Z,73.20
2022-09-28T00:53:56.098Z,73.10
2022-09-28T00:54:28.983Z,73.30
2022-09-28T00:55:04.576Z,73.50
2022-09-28T00:56:00.491Z,73.40
2022-09-28T00:56:38.269Z,73.30
2022-09-28T00:57:10.243Z,74.00
2022-09-28T00:57:47.948Z,73.40
2022-09-28T00:58:27.518Z,73.80
2022-09-28T00:59:01.709Z,73.40
2022-09-28T00:59:35.117Z,73.40
2022-09-28T01:00:08.103Z,73.40
2022-09-28T01:00:41.057Z,73.50
2022-09-28T01:01:45.759Z,72.90
2022-09-28T01:02:18.246Z,72.90
2022-09-28T01:02:50.935Z,74.30
2022-09-28T01:03:23.232Z,73.00
2022-09-28T01:03:55.368Z,73.00
2022-09-28T01:04:30.001Z,73.60
2022-09-28T01:05:05.657Z,73.40
2022-09-28T01:05:40.515Z,72.80
2022-09-28T01:06:20.485Z,72.90
2022-09-28T01:06:52.861Z,72.90
2022-09-28T01:07:24.992Z,73.50
2022-09-28T01:07:57.627Z,73.00
2022-09-28T01:08:32.932Z,72.90
2022-09-28T01:09:10.012Z,73.70
2022-09-28T01:09:43.230Z,73.30
2022-09-28T01:10:15.716Z,73.50
2022-09-28T01:10:49.221Z,73.00
2022-09-28T01:11:25.641Z,73.50
2022-09-28T01:11:57.869Z,73.00
2022-09-28T01:12:30.021Z,73.40
2022-09-28T01:13:02.014Z,74.30
2022-09-28T01:13:35.325Z,72.90
2022-09-28T01:14:11.820Z,73.50
2022-09-28T01:14:44.674Z,74.30
2022-09-28T01:15:17.048Z,73.30
2022-09-28T01:15:57.841Z,73.30
2022-09-28T01:17:03.716Z,73.40
2022-09-28T01:18:17.637Z,73.40
2022-09-28T01:19:01.774Z,73.40
2022-09-28T01:20:26.680Z,73.40
2022-09-28T01:21:18.693Z,73.20
2022-09-28T01:22:06.427Z,73.30
2022-09-28T01:23:20.032Z,73.00
2022-09-28T01:24:24.127Z,72.80
2022-09-28T01:25:13.009Z,73.40
2022-09-28T01:26:12.145Z,72.80
2022-09-28T01:26:58.176Z,73.40
2022-09-28T01:27:41.588Z,74.40
2022-09-28T01:28:17.435Z,72.80
2022-09-28T01:28:59.326Z,74.60
2022-09-28T01:29:33.982Z,73.60
2022-09-28T01:30:14.572Z,73.40
2022-09-28T01:30:52.335Z,73.20
2022-09-28T01:31:29.909Z,73.30
2022-09-28T01:32:12.650Z,73.00
2022-09-28T01:32:55.773Z,73.30
2022-09-28T01:33:38.356Z,73.40
2022-09-28T01:34:25.424Z,73.40
2022-09-28T01:35:09.458Z,72.70
2022-09-28T01:36:28.195Z,73.20
2022-09-28T01:37:08.475Z,73.40
2022-09-28T01:38:14.032Z,72.90
2022-09-28T01:38:52.487Z,72.80
2022-09-28T01:39:34.989Z,73.40
2022-09-28T01:40:10.564Z,73.20
2022-09-28T01:40:43.588Z,73.20
2022-09-28T01:41:17.902Z,73.40
2022-09-28T01:41:54.621Z,73.40
2022-09-28T01:42:32.446Z,73.50
2022-09-28T01:43:12.547Z,72.90
2022-09-28T01:43:54.689Z,73.30
2022-09-28T01:44:31.445Z,73.20
2022-09-28T01:45:10.565Z,73.30
2022-09-28T01:45:50.162Z,73.30
2022-09-28T01:46:28.920Z,73.20
2022-09-28T01:47:04.261Z,73.40
2022-09-28T01:47:41.153Z,73.30
2022-09-28T01:48:22.821Z,73.40
2022-09-28T01:48:58.666Z,73.30
2022-09-28T01:49:50.690Z,73.40
2022-09-28T01:50:28.546Z,73.40
2022-09-28T01:51:08.105Z,73.30
2022-09-28T01:52:06.024Z,73.20
2022-09-28T01:52:59.496Z,73.20
2022-09-28T01:53:31.857Z,73.30
2022-09-28T01:54:27.072Z,72.70
2022-09-28T01:55:12.011Z,73.30
2022-09-28T01:55:52.566Z,73.20
2022-09-28T01:56:38.622Z,73.10
2022-09-28T01:57:29.110Z,73.20
2022-09-28T01:58:20.578Z,73.00
2022-09-28T01:59:06.753Z,73.30
2022-09-28T01:59:45.245Z,73.20
2022-09-28T02:00:20.656Z,73.10
2022-09-28T02:01:24.369Z,72.60
2022-09-28T02:02:02.348Z,73.30
2022-09-28T02:02:54.523Z,72.50
2022-09-28T02:03:42.301Z,73.20
2022-09-28T02:04:23.307Z,72.60
2022-09-28T02:05:01.666Z,73.10
2022-09-28T02:05:37.292Z,72.60
2022-09-28T02:06:21.620Z,72.60
2022-09-28T02:07:02.410Z,72.50
2022-09-28T02:07:48.496Z,72.70
2022-09-28T02:09:01.976Z,72.40
2022-09-28T02:10:25.539Z,72.30
2022-09-28T02:11:00.017Z,72.60
2022-09-28T02:11:37.279Z,72.40
2022-09-28T02:12:31.189Z,72.10
2022-09-28T02:13:14.469Z,71.80
2022-09-28T02:14:03.788Z,71.90
2022-09-28T02:17:16.128Z,71.70
2022-09-28T02:17:52.175Z,71.70
2022-09-28T02:18:24.770Z,71.70
2022-09-28T02:22:04.951Z,71.10
2022-09-28T02:25:20.194Z,70.90
2022-09-28T02:28:00.500Z,70.80
2022-09-28T02:42:01.404Z,70.50
2022-09-28T02:45:36.809Z,71.10
2022-09-28T02:46:29.842Z,71.10
2022-09-28T02:48:08.213Z,71.00
2022-09-28T02:49:22.609Z,71.00
2022-09-28T02:50:42.799Z,71.50
2022-09-28T02:51:45.281Z,71.30
2022-09-28T02:52:36.478Z,71.60
2022-09-28T02:53:27.123Z,71.50
2022-09-28T02:54:04.830Z,71.60
2022-09-28T02:54:57.594Z,71.60
2022-09-28T02:55:48.405Z,71.60
2022-09-28T02:56:37.531Z,71.50
2022-09-28T02:57:28.116Z,72.20
2022-09-28T02:58:15.093Z,72.40
2022-09-28T02:59:08.954Z,72.00
2022-09-28T03:00:10.755Z,72.50
2022-09-28T03:01:03.166Z,71.90
2022-09-28T03:02:13.777Z,71.90
2022-09-28T03:02:54.424Z,72.50
2022-09-28T03:03:45.238Z,72.00
2022-09-28T03:04:30.178Z,72.00
2022-09-28T03:05:15.966Z,72.20
2022-09-28T03:06:00.336Z,72.60
2022-09-28T03:07:17.777Z,72.20
2022-09-28T03:08:11.642Z,72.10
2022-09-28T03:08:54.701Z,72.70
2022-09-28T03:09:41.064Z,72.40
2022-09-28T03:11:01.725Z,72.10
2022-09-28T03:11:40.795Z,72.20
2022-09-28T03:12:17.433Z,72.50
2022-09-28T03:12:51.583Z,72.20
2022-09-28T03:13:25.724Z,72.10
2022-09-28T03:13:58.570Z,70.60
2022-09-28T03:14:39.526Z,72.10
2022-09-28T03:15:35.352Z,72.60
2022-09-28T03:16:13.530Z,72.80
2022-09-28T03:16:46.889Z,72.80
2022-09-28T03:17:20.795Z,73.80
2022-09-28T03:17:52.930Z,72.10
2022-09-28T03:18:24.835Z,71.90
2022-09-28T03:18:56.669Z,72.60
2022-09-28T03:19:33.820Z,72.30
2022-09-28T03:20:06.562Z,72.00
2022-09-28T03:20:38.541Z,72.10
2022-09-28T03:21:14.718Z,72.10
2022-09-28T03:21:46.903Z,72.00
2022-09-28T03:22:18.608Z,71.80
2022-09-28T03:23:12.324Z,71.90
2022-09-28T03:23:42.736Z,71.90
2022-09-28T03:24:15.022Z,71.70
2022-09-28T03:25:19.841Z,73.70
2022-09-28T03:25:51.912Z,72.10
2022-09-28T03:26:23.718Z,72.10
2022-09-28T03:26:55.506Z,72.10
2022-09-28T03:27:27.888Z,72.10
2022-09-28T03:27:59.898Z,72.10
2022-09-28T03:28:32.171Z,72.00
2022-09-28T03:29:04.344Z,72.10
2022-09-28T03:29:36.323Z,72.10
2022-09-28T03:30:46.461Z,75.10
2022-09-28T03:31:18.293Z,72.20
2022-09-28T03:31:50.087Z,72.20
2022-09-28T03:32:21.893Z,73.80
2022-09-28T03:32:58.464Z,73.90
2022-09-28T03:33:32.081Z,72.20
2022-09-28T03:34:04.028Z,72.10
2022-09-28T03:34:36.387Z,72.00
2022-09-28T03:35:09.770Z,72.30
2022-09-28T03:35:41.654Z,72.80
2022-09-28T03:36:15.047Z,72.20
2022-09-28T03:36:46.803Z,72.90
2022-09-28T03:37:18.570Z,72.30
2022-09-28T03:37:55.838Z,72.30
2022-09-28T03:38:28.543Z,73.80
2022-09-28T03:39:00.410Z,72.40
2022-09-28T03:39:32.313Z,73.80
2022-09-28T03:40:05.368Z,72.30
2022-09-28T03:40:38.392Z,72.80
2022-09-28T03:41:10.447Z,72.40
2022-09-28T03:41:45.229Z,72.40
2022-09-28T03:42:17.067Z,73.80
2022-09-28T03:42:54.005Z,72.30
2022-09-28T03:43:27.375Z,72.20
2022-09-28T03:44:02.459Z,72.20
2022-09-28T03:45:40.428Z,71.80
2022-09-28T03:47:21.514Z,71.70
2022-09-28T03:47:53.560Z,71.70
2022-09-28T03:49:03.823Z,71.80
2022-09-28T03:50:08.494Z,72.00
2022-09-28T03:50:40.250Z,72.00
2022-09-28T03:51:15.298Z,72.00
2022-09-28T03:51:47.518Z,71.90
2022-09-28T03:52:19.240Z,72.00
2022-09-28T03:53:23.893Z,72.10
2022-09-28T03:53:55.694Z,72.00
2022-09-28T03:55:32.722Z,71.70
2022-09-28T03:56:13.059Z,71.70
2022-09-28T03:56:46.077Z,71.70
2022-09-28T03:57:55.692Z,71.60
2022-09-28T03:58:28.333Z,71.70
2022-09-28T03:59:02.244Z,72.00
2022-09-28T03:59:37.312Z,71.80
2022-09-28T04:00:10.224Z,71.90
2022-09-28T04:00:48.703Z,72.10
2022-09-28T04:01:20.717Z,71.90
2022-09-28T04:02:24.960Z,72.00
2022-09-28T04:02:56.774Z,72.40
2022-09-28T04:03:28.589Z,72.20
2022-09-28T04:04:00.642Z,72.30
2022-09-28T04:04:32.457Z,72.50
2022-09-28T04:05:04.469Z,72.40
2022-09-28T04:05:36.566Z,72.90
2022-09-28T04:06:08.861Z,73.00
2022-09-28T04:06:40.933Z,73.10
2022-09-28T04:07:12.735Z,74.20
2022-09-28T04:07:44.565Z,72.60
2022-09-28T04:08:16.489Z,72.70
2022-09-28T04:08:50.322Z,72.30
2022-09-28T04:09:22.123Z,72.40
2022-09-28T04:09:54.357Z,72.80
2022-09-28T04:10:26.655Z,72.50
2022-09-28T04:11:00.839Z,72.60
2022-09-28T04:11:47.514Z,73.40
2022-09-28T04:12:25.364Z,72.60
2022-09-28T04:12:57.751Z,72.50
2022-09-28T04:13:31.035Z,72.40
2022-09-28T04:14:03.553Z,75.50
2022-09-28T04:14:36.197Z,73.60
2022-09-28T04:15:09.306Z,74.30
2022-09-28T04:15:41.591Z,72.50
2022-09-28T04:16:13.425Z,73.10
2022-09-28T04:16:48.664Z,73.10
2022-09-28T04:17:21.061Z,73.10
2022-09-28T04:17:53.101Z,70.90
2022-09-28T04:18:48.406Z,73.20
2022-09-28T04:19:36.728Z,74.60
2022-09-28T04:20:26.917Z,73.10
2022-09-28T04:21:11.857Z,74.50
2022-09-28T04:21:52.901Z,74.70
2022-09-28T04:22:24.953Z,73.20
2022-09-28T04:22:58.435Z,73.40
2022-09-28T04:23:30.626Z,73.10
2022-09-28T04:24:02.361Z,74.30
2022-09-28T04:24:34.199Z,73.20
2022-09-28T04:25:06.564Z,72.60
2022-09-28T04:25:39.569Z,73.20
2022-09-28T04:26:23.422Z,73.00
2022-09-28T04:27:18.198Z,73.50
2022-09-28T04:28:08.812Z,74.00
2022-09-28T04:29:05.542Z,73.80
2022-09-28T04:29:38.861Z,72.90
2022-09-28T04:30:11.652Z,73.10
2022-09-28T04:30:47.541Z,73.10
2022-09-28T04:31:23.667Z,73.50
2022-09-28T04:31:56.160Z,72.90
2022-09-28T04:32:40.326Z,74.30
2022-09-28T04:33:12.180Z,74.80
2022-09-28T04:33:44.046Z,73.00
2022-09-28T04:34:18.758Z,72.50
2022-09-28T04:34:51.311Z,73.00
2022-09-28T04:35:23.129Z,72.30
2022-09-28T04:35:55.066Z,72.60
2022-09-28T04:36:26.818Z,73.50
2022-09-28T04:36:58.568Z,72.90
2022-09-28T04:37:31.236Z,73.80
2022-09-28T04:38:03.010Z,74.10
2022-09-28T04:38:52.306Z,73.20
2022-09-28T04:39:26.078Z,73.50
2022-09-28T04:40:00.568Z,73.80
2022-09-28T04:40:32.561Z,73.20
2022-09-28T04:41:04.777Z,72.40
2022-09-28T04:41:36.543Z,73.90
2022-09-28T04:42:10.567Z,73.60
2022-09-28T04:42:43.829Z,74.20
2022-09-28T04:43:15.571Z,72.50
2022-09-28T04:43:47.554Z,72.50
2022-09-28T04:44:20.020Z,73.20
2022-09-28T04:44:53.189Z,73.50
2022-09-28T04:45:26.850Z,74.10
2022-09-28T04:46:03.143Z,73.20
2022-09-28T04:46:41.550Z,72.50
2022-09-28T04:47:45.793Z,72.60
2022-09-28T04:48:28.722Z,73.30
2022-09-28T04:49:14.841Z,73.20
2022-09-28T04:49:54.414Z,72.50
2022-09-28T04:50:32.955Z,75.00
2022-09-28T04:51:11.101Z,73.00
2022-09-28T04:51:42.970Z,72.70
2022-09-28T04:52:18.278Z,75.10
2022-09-28T04:52:52.662Z,73.10
2022-09-28T04:53:25.699Z,75.40
2022-09-28T04:53:57.742Z,73.00
2022-09-28T04:54:29.568Z,74.80
2022-09-28T04:55:01.685Z,74.60
2022-09-28T04:55:33.626Z,72.60
2022-09-28T04:56:10.015Z,72.50
2022-09-28T04:56:43.234Z,72.50
2022-09-28T04:57:15.041Z,73.90
2022-09-28T04:57:46.772Z,72.50
2022-09-28T04:58:18.772Z,72.50
2022-09-28T04:58:52.835Z,72.80
2022-09-28T04:59:25.850Z,73.30
2022-09-28T04:59:57.910Z,74.30
2022-09-28T05:00:34.612Z,74.30
2022-09-28T05:01:17.549Z,73.00
2022-09-28T05:02:01.458Z,73.00
2022-09-28T05:03:08.567Z,73.30
2022-09-28T05:04:03.519Z,73.70
2022-09-28T05:04:49.101Z,72.80
2022-09-28T05:05:34.331Z,73.20
2022-09-28T05:06:22.587Z,74.00
2022-09-28T05:07:00.278Z,73.10
2022-09-28T05:07:32.174Z,74.10
2022-09-28T05:08:06.734Z,73.40
2022-09-28T05:08:38.495Z,73.70
2022-09-28T05:09:10.376Z,73.90
2022-09-28T05:09:42.223Z,73.40
2022-09-28T05:10:14.004Z,72.70
2022-09-28T05:10:46.566Z,73.30
2022-09-28T05:11:19.829Z,72.80
2022-09-28T05:11:53.004Z,73.20
2022-09-28T05:12:26.838Z,73.00
2022-09-28T05:12:58.653Z,74.50
2022-09-28T05:14:12.661Z,72.70
2022-09-28T05:14:45.110Z,73.40
2022-09-28T05:15:17.150Z,74.40
2022-09-28T05:15:57.579Z,73.20
2022-09-28T05:16:34.189Z,72.80
2022-09-28T05:17:39.360Z,73.40
2022-09-28T05:18:15.147Z,73.30
2022-09-28T05:18:56.144Z,72.90
2022-09-28T05:19:28.231Z,74.10
2022-09-28T05:20:06.985Z,72.80
2022-09-28T05:20:42.099Z,73.50
2022-09-28T05:21:15.778Z,73.20
2022-09-28T05:21:48.746Z,72.70
2022-09-28T05:22:20.776Z,73.40
2022-09-28T05:22:52.620Z,72.80
2022-09-28T05:23:24.489Z,74.00
2022-09-28T05:23:59.547Z,72.80
2022-09-28T05:24:31.799Z,73.30
2022-09-28T05:25:04.413Z,72.70
2022-09-28T05:25:45.412Z,73.40
2022-09-28T05:26:23.933Z,73.60
2022-09-28T05:26:55.826Z,73.40
2022-09-28T05:27:27.597Z,73.40
2022-09-28T05:28:28.411Z,73.40
2022-09-28T05:29:18.976Z,73.50
2022-09-28T05:30:11.550Z,72.80
2022-09-28T05:31:06.374Z,73.30
2022-09-28T05:32:04.633Z,74.00
2022-09-28T05:32:44.138Z,73.40
2022-09-28T05:33:37.130Z,73.00
2022-09-28T05:34:15.878Z,73.40
2022-09-28T05:34:48.698Z,73.60
2022-09-28T05:35:27.195Z,74.60
2022-09-28T05:36:01.513Z,73.00
2022-09-28T05:36:34.506Z,73.40
2022-09-28T05:37:06.242Z,73.00
2022-09-28T05:37:38.904Z,73.80
2022-09-28T05:38:10.755Z,75.00
2022-09-28T05:38:42.542Z,73.70
2022-09-28T05:39:14.368Z,74.20
2022-09-28T05:39:46.079Z,71.90
2022-09-28T05:40:18.805Z,74.10
2022-09-28T05:40:51.191Z,74.20
2022-09-28T05:41:23.264Z,72.90
2022-09-28T05:41:57.799Z,73.00
2022-09-28T05:42:30.848Z,73.20
2022-09-28T05:43:02.954Z,73.20
2022-09-28T05:43:34.922Z,73.50
2022-09-28T05:44:08.985Z,73.10
2022-09-28T05:44:41.146Z,73.00
2022-09-28T05:45:13.283Z,74.40
2022-09-28T05:45:49.354Z,73.70
2022-09-28T05:46:23.851Z,73.10
2022-09-28T05:46:56.373Z,73.60
2022-09-28T05:47:28.156Z,73.00
2022-09-28T05:47:59.948Z,73.70
2022-09-28T05:48:31.812Z,73.80
2022-09-28T05:49:03.829Z,73.70
2022-09-28T05:49:35.714Z,73.60
2022-09-28T05:50:11.745Z,73.70
2022-09-28T05:50:44.106Z,73.60
2022-09-28T05:51:16.736Z,73.00
2022-09-28T05:51:48.527Z,73.70
2022-09-28T05:52:20.468Z,75.30
2022-09-28T05:53:03.466Z,73.60
2022-09-28T05:53:35.235Z,73.50
2022-09-28T05:54:07.643Z,73.70
2022-09-28T05:54:43.002Z,75.00
2022-09-28T05:55:15.829Z,73.10
2022-09-28T05:55:48.673Z,73.70
2022-09-28T05:56:20.534Z,73.00
2022-09-28T05:56:53.714Z,72.70
2022-09-28T05:57:25.558Z,72.70
2022-09-28T05:58:01.767Z,72.90
2022-09-28T05:58:34.212Z,72.70
2022-09-28T05:59:38.612Z,72.50
2022-09-28T06:00:11.016Z,72.50
2022-09-28T06:00:53.510Z,72.50
2022-09-28T06:01:25.545Z,72.70
2022-09-28T06:01:58.472Z,72.70
2022-09-28T06:02:30.945Z,72.40
2022-09-28T06:03:08.969Z,72.50
2022-09-28T06:03:41.535Z,72.40
2022-09-28T06:04:14.613Z,72.50
2022-09-28T06:05:21.169Z,72.70
2022-09-28T06:05:53.406Z,72.90
2022-09-28T06:06:25.198Z,72.90
2022-09-28T06:06:59.633Z,73.10
2022-09-28T06:07:32.549Z,73.90
2022-09-28T06:08:05.670Z,73.60
2022-09-28T06:08:37.745Z,73.50
2022-09-28T06:09:26.267Z,73.50
2022-09-28T06:10:00.732Z,73.70
2022-09-28T06:10:45.473Z,73.00
2022-09-28T06:11:18.652Z,73.10
2022-09-28T06:11:52.259Z,74.60
2022-09-28T06:12:33.548Z,73.60
2022-09-28T06:13:12.505Z,73.10
2022-09-28T06:13:45.139Z,73.20
2022-09-28T06:14:17.737Z,73.10
2022-09-28T06:14:49.723Z,74.80
2022-09-28T06:15:22.898Z,74.90
2022-09-28T06:15:55.043Z,73.70
2022-09-28T06:16:26.910Z,76.30
2022-09-28T06:16:58.831Z,73.20
2022-09-28T06:17:30.701Z,73.20
2022-09-28T06:18:22.386Z,73.30
2022-09-28T06:19:12.663Z,74.20
2022-09-28T06:20:02.121Z,73.40
2022-09-28T06:20:52.363Z,76.10
2022-09-28T06:21:35.868Z,74.80
2022-09-28T06:22:07.954Z,74.80
2022-09-28T06:22:52.482Z,73.30
2022-09-28T06:23:56.758Z,73.30
2022-09-28T06:24:28.585Z,73.30
2022-09-28T06:25:00.345Z,73.90
2022-09-28T06:25:32.483Z,73.40
2022-09-28T06:26:04.393Z,74.10
2022-09-28T06:26:36.165Z,74.10
2022-09-28T06:27:09.175Z,74.10
2022-09-28T06:27:42.535Z,73.50
2022-09-28T06:28:15.854Z,74.30
2022-09-28T06:28:48.040Z,73.40
2022-09-28T06:29:20.046Z,75.20
2022-09-28T06:29:52.777Z,73.40
2022-09-28T06:30:27.081Z,73.90
2022-09-28T06:31:01.940Z,73.50
2022-09-28T06:31:35.097Z,76.50
2022-09-28T06:32:07.551Z,73.70
2022-09-28T06:32:40.743Z,74.00
2022-09-28T06:33:14.950Z,75.00
2022-09-28T06:33:48.438Z,73.30
2022-09-28T06:34:21.379Z,74.10
2022-09-28T06:34:56.328Z,76.30
2022-09-28T06:35:31.104Z,75.50
2022-09-28T06:36:03.138Z,73.90
2022-09-28T06:36:35.380Z,73.50
2022-09-28T06:37:07.607Z,73.80
2022-09-28T06:37:44.792Z,74.90
2022-09-28T06:38:16.623Z,74.70
2022-09-28T06:38:48.646Z,73.40
2022-09-28T06:39:20.599Z,73.70
2022-09-28T06:39:53.374Z,74.30
2022-09-28T06:40:26.001Z,73.70
2022-09-28T06:40:58.897Z,73.60
2022-09-28T06:41:30.833Z,74.20
2022-09-28T06:42:12.577Z,74.30
2022-09-28T06:43:21.647Z,74.40
2022-09-28T06:44:12.318Z,74.30
2022-09-28T06:45:02.799Z,73.80
2022-09-28T06:46:10.537Z,74.40
2022-09-28T06:47:05.285Z,73.30
2022-09-28T06:48:01.122Z,74.40
2022-09-28T06:48:41.199Z,74.40
2022-09-28T06:49:19.450Z,75.00
2022-09-28T06:50:14.961Z,74.00
2022-09-28T06:50:55.862Z,73.80
2022-09-28T06:51:30.273Z,75.10
2022-09-28T06:52:02.926Z,74.80
2022-09-28T06:52:57.185Z,75.00
2022-09-28T06:53:53.872Z,74.70
2022-09-28T06:54:35.971Z,74.00
2022-09-28T06:55:18.896Z,76.50
2022-09-28T06:55:57.855Z,75.30
2022-09-28T06:56:32.836Z,74.60
2022-09-28T06:57:09.076Z,75.60
2022-09-28T06:57:40.860Z,75.70
2022-09-28T06:58:19.462Z,74.20
2022-09-28T06:58:51.297Z,74.50
2022-09-28T06:59:23.040Z,74.70
2022-09-28T06:59:55.590Z,76.90
2022-09-28T07:00:28.869Z,74.20
2022-09-28T07:01:00.787Z,74.70
2022-09-28T07:01:37.948Z,75.90
2022-09-28T07:02:25.039Z,75.00
2022-09-28T07:03:21.651Z,74.30
2022-09-28T07:04:12.098Z,75.70
2022-09-28T07:05:03.030Z,76.20
2022-09-28T07:05:57.308Z,74.40
2022-09-28T07:07:09.127Z,74.40
2022-09-28T07:07:59.790Z,74.90
2022-09-28T07:08:52.799Z,74.40
2022-09-28T07:10:02.628Z,74.30
2022-09-28T07:10:56.150Z,74.50
2022-09-28T07:11:40.025Z,74.50
2022-09-28T07:12:32.172Z,74.60
2022-09-28T07:13:16.112Z,75.80
2022-09-28T07:13:54.907Z,75.10
2022-09-28T07:14:45.663Z,74.60
2022-09-28T07:15:19.686Z,75.30
2022-09-28T07:15:56.036Z,75.80
2022-09-28T07:16:48.170Z,74.70
2022-09-28T07:17:20.522Z,74.90
2022-09-28T07:18:02.386Z,75.50
2022-09-28T07:18:35.775Z,77.50
2022-09-28T07:19:07.734Z,75.00
2022-09-28T07:19:39.494Z,74.90
2022-09-28T07:20:17.788Z,78.00
2022-09-28T07:20:54.423Z,77.50
2022-09-28T07:21:30.118Z,75.70
2022-09-28T07:22:05.795Z,76.40
2022-09-28T07:22:43.501Z,75.60
2022-09-28T07:23:20.120Z,75.20
2022-09-28T07:24:12.388Z,75.90
2022-09-28T07:25:14.205Z,77.60
2022-09-28T07:26:08.333Z,77.30
2022-09-28T07:27:07.122Z,75.40
2022-09-28T07:27:43.294Z,76.00
2022-09-28T07:28:35.293Z,76.60
2022-09-28T07:29:19.688Z,75.50
2022-09-28T07:30:06.282Z,75.60
2022-09-28T07:30:57.554Z,76.10
2022-09-28T07:31:48.307Z,76.00
2022-09-28T07:32:45.767Z,76.80
2022-09-28T07:33:36.242Z,76.30
2022-09-28T07:34:23.073Z,76.60
2022-09-28T07:35:10.654Z,76.10
2022-09-28T07:35:55.423Z,76.60
2022-09-28T07:36:36.325Z,75.40
2022-09-28T07:37:08.881Z,77.10
2022-09-28T07:37:40.691Z,76.20
2022-09-28T07:38:13.245Z,76.30
2022-09-28T07:38:45.105Z,79.20
2022-09-28T07:39:16.890Z,76.90
2022-09-28T07:40:07.056Z,77.00
2022-09-28T07:41:00.659Z,76.80
2022-09-28T07:41:32.589Z,76.90
2022-09-28T07:42:06.037Z,76.90
2022-09-28T07:42:38.268Z,76.90
2022-09-28T07:43:10.265Z,76.70
2022-09-28T07:43:42.426Z,77.00
2022-09-28T07:44:15.269Z,77.00
2022-09-28T07:44:47.221Z,77.10
2022-09-28T07:45:20.722Z,76.50
2022-09-28T07:45:54.871Z,77.10
2022-09-28T07:46:26.922Z,76.50
2022-09-28T07:47:03.518Z,77.60
2022-09-28T07:47:56.823Z,78.50
2022-09-28T07:48:51.582Z,76.90
2022-09-28T07:49:38.456Z,77.30
2022-09-28T07:50:33.545Z,77.40
2022-09-28T07:51:13.276Z,77.30
2022-09-28T07:51:49.645Z,77.70
2022-09-28T07:52:26.417Z,78.20
2022-09-28T07:53:11.855Z,76.90
2022-09-28T07:53:56.660Z,77.10
2022-09-28T07:54:55.479Z,77.10
2022-09-28T07:55:54.649Z,79.10
2022-09-28T07:56:38.962Z,77.50
2022-09-28T07:57:20.429Z,77.80
2022-09-28T07:58:00.992Z,77.80
2022-09-28T07:58:47.521Z,77.70
2022-09-28T07:59:45.429Z,77.90
2022-09-28T08:00:50.588Z,77.40
2022-09-28T08:01:22.940Z,77.70
2022-09-28T08:01:55.960Z,79.00
2022-09-28T08:02:28.029Z,79.30
2022-09-28T08:03:00.395Z,77.60
2022-09-28T08:03:32.767Z,78.10
2022-09-28T08:04:06.160Z,80.40
2022-09-28T08:04:40.237Z,78.60
2022-09-28T08:05:12.376Z,77.60
2022-09-28T08:05:44.413Z,78.30
2022-09-28T08:06:17.605Z,78.90
2022-09-28T08:06:49.631Z,78.50
2022-09-28T08:07:24.167Z,78.00
2022-09-28T08:08:03.355Z,77.90
2022-09-28T08:08:35.699Z,78.00
2022-09-28T08:09:07.599Z,78.80
2022-09-28T08:09:57.941Z,77.90
2022-09-28T08:10:32.623Z,77.90
2022-09-28T08:11:13.180Z,78.60
2022-09-28T08:12:04.892Z,80.20
2022-09-28T08:12:47.119Z,78.00
2022-09-28T08:13:55.326Z,78.70
2022-09-28T08:15:10.225Z,78.10
2022-09-28T08:15:54.044Z,78.80
2022-09-28T08:16:40.348Z,76.10
2022-09-28T08:17:18.846Z,78.30
2022-09-28T08:17:56.130Z,79.00
2022-09-28T08:18:31.362Z,79.70
2022-09-28T08:19:03.137Z,80.30
2022-09-28T08:19:54.234Z,81.00
2022-09-28T08:20:48.086Z,78.80
2022-09-28T08:21:42.519Z,77.20
2022-09-28T08:22:14.826Z,79.00
2022-09-28T08:22:46.654Z,81.50
2022-09-28T08:23:19.916Z,79.10
2022-09-28T08:23:52.997Z,77.90
2022-09-28T08:24:24.744Z,78.50
2022-09-28T08:24:57.585Z,79.60
2022-09-28T08:25:29.395Z,79.00
2022-09-28T08:26:01.142Z,79.30
2022-09-28T08:26:32.919Z,81.10
2022-09-28T08:27:07.649Z,79.20
2022-09-28T08:27:41.038Z,78.40
2022-09-28T08:28:13.118Z,79.00
2022-09-28T08:28:51.170Z,78.50
2022-09-28T08:29:49.828Z,79.50
2022-09-28T08:30:46.402Z,80.50
2022-09-28T08:31:36.678Z,78.90
2022-09-28T08:32:21.430Z,79.70
2022-09-28T08:33:29.182Z,79.80
2022-09-28T08:34:19.979Z,79.80
2022-09-28T08:35:10.146Z,80.20
2022-09-28T08:36:02.381Z,78.70
2022-09-28T08:37:04.244Z,80.40
2022-09-28T08:37:55.588Z,78.00
2022-09-28T08:38:46.232Z,78.90
2022-09-28T08:39:38.676Z,80.00
2022-09-28T08:40:54.903Z,81.60
2022-09-28T08:42:00.272Z,79.40
2022-09-28T08:42:45.683Z,79.30
2022-09-28T08:43:41.988Z,79.60
2022-09-28T08:44:39.625Z,79.40
2022-09-28T08:45:30.012Z,79.70
2022-09-28T08:46:12.531Z,80.30
2022-09-28T08:48:15.429Z,79.50
2022-09-28T08:49:30.003Z,79.30
2022-09-28T08:50:45.674Z,79.00
2022-09-28T08:51:50.428Z,80.40
2022-09-28T08:52:38.695Z,79.50
2022-09-28T08:53:41.623Z,80.60
2022-09-28T08:54:41.603Z,79.60
2022-09-28T08:55:32.287Z,79.40
2022-09-28T08:56:14.047Z,79.80
2022-09-28T08:56:55.510Z,80.00
2022-09-28T08:57:36.031Z,80.30
2022-09-28T08:58:13.398Z,80.70
2022-09-28T08:58:54.445Z,81.00
2022-09-28T08:59:37.159Z,79.80
2022-09-28T09:00:27.614Z,79.80
2022-09-28T09:01:02.102Z,79.70
2022-09-28T09:01:42.118Z,79.70
2022-09-28T09:02:36.044Z,79.50
2022-09-28T09:03:44.502Z,79.80
2022-09-28T09:04:37.572Z,79.40